Terminal Aerodrome Forecast
Issued by NWS

Home | Current Version | Previous Version | Text Only | Print | Product List | Glossary Off
Versions: 1 2 3 4 5 6 7 8 9 10 11 12 13 14

000
FTUS43 KMPX 160535
TAFAXN
TAF
KAXN 160535Z 1606/1706 19007KT P6SM BKN250
     FM161400 19004KT P6SM SCT070 BKN120
     FM162200 VRB03KT P6SM SCT040 BKN100
     FM170200 34003KT P6SM SCT100 BKN250=

USA.gov is the U.S. government's official web portal to all federal, state and local government web resources and services.